sensor_id;sensor_type;location;lat;lon;timestamp;pressure;altitude;pressure_sealevel;temperature;humidity
12452;BME280;72521;48.924;12.204;2024-01-06T00:03:12;96287.34;;;3.32;100.00
12452;BME280;72521;48.924;12.204;2024-01-06T00:08:20;96291.78;;;3.32;100.00
12452;BME280;72521;48.924;12.204;2024-01-06T00:13:24;96292.31;;;3.34;100.00
12452;BME280;72521;48.924;12.204;2024-01-06T00:18:29;96290.50;;;3.45;100.00
12452;BME280;72521;48.924;12.204;2024-01-06T00:23:34;96284.75;;;3.43;100.00
12452;BME280;72521;48.924;12.204;2024-01-06T00:28:39;96286.81;;;3.41;100.00
12452;BME280;72521;48.924;12.204;2024-01-06T00:33:43;96281.88;;;3.44;100.00
12452;BME280;72521;48.924;12.204;2024-01-06T00:38:49;96273.75;;;3.46;100.00
12452;BME280;72521;48.924;12.204;2024-01-06T00:43:54;96281.88;;;3.44;100.00
12452;BME280;72521;48.924;12.204;2024-01-06T00:48:58;96280.81;;;3.40;100.00
12452;BME280;72521;48.924;12.204;2024-01-06T00:54:03;96287.34;;;3.43;100.00
12452;BME280;72521;48.924;12.204;2024-01-06T00:59:07;96289.44;;;3.46;100.00
12452;BME280;72521;48.924;12.204;2024-01-06T01:04:11;96302.00;;;3.44;100.00
12452;BME280;72521;48.924;12.204;2024-01-06T01:09:17;96305.63;;;3.48;100.00
12452;BME280;72521;48.924;12.204;2024-01-06T01:14:21;96307.22;;;3.49;100.00
12452;BME280;72521;48.924;12.204;2024-01-06T01:19:25;96309.56;;;3.50;100.00
12452;BME280;72521;48.924;12.204;2024-01-06T01:24:31;96315.84;;;3.59;100.00
12452;BME280;72521;48.924;12.204;2024-01-06T01:29:36;96319.25;;;3.50;100.00
12452;BME280;72521;48.924;12.204;2024-01-06T01:34:40;96305.66;;;3.53;100.00
12452;BME280;72521;48.924;12.204;2024-01-06T01:39:47;96307.72;;;3.61;100.00
12452;BME280;72521;48.924;12.204;2024-01-06T01:44:50;96303.56;;;3.55;100.00
12452;BME280;72521;48.924;12.204;2024-01-06T01:49:55;96295.72;;;3.50;100.00
12452;BME280;72521;48.924;12.204;2024-01-06T01:55:00;96293.09;;;3.50;100.00
12452;BME280;72521;48.924;12.204;2024-01-06T02:00:06;96300.94;;;3.50;100.00
12452;BME280;72521;48.924;12.204;2024-01-06T02:05:14;96291.28;;;3.45;100.00
12452;BME280;72521;48.924;12.204;2024-01-06T02:10:19;96289.19;;;3.42;100.00
12452;BME280;72521;48.924;12.204;2024-01-06T02:15:24;96288.41;;;3.42;100.00
12452;BME280;72521;48.924;12.204;2024-01-06T02:20:30;96289.16;;;3.37;100.00
12452;BME280;72521;48.924;12.204;2024-01-06T02:25:36;96297.28;;;3.35;100.00
12452;BME280;72521;48.924;12.204;2024-01-06T02:30:40;96295.19;;;3.32;100.00
12452;BME280;72521;48.924;12.204;2024-01-06T02:35:44;96298.84;;;3.36;100.00
12452;BME280;72521;48.924;12.204;2024-01-06T02:40:49;96303.56;;;3.34;100.00
12452;BME280;72521;48.924;12.204;2024-01-06T02:45:53;96289.69;;;3.29;100.00
12452;BME280;72521;48.924;12.204;2024-01-06T02:50:57;96294.94;;;3.24;100.00
12452;BME280;72521;48.924;12.204;2024-01-06T02:56:03;96304.59;;;3.23;100.00
12452;BME280;72521;48.924;12.204;2024-01-06T03:01:08;96305.41;;;3.24;100.00
12452;BME280;72521;48.924;12.204;2024-01-06T03:06:12;96304.59;;;3.23;100.00
12452;BME280;72521;48.924;12.204;2024-01-06T03:11:18;96307.22;;;3.23;100.00
12452;BME280;72521;48.924;12.204;2024-01-06T03:16:22;96295.19;;;3.22;100.00
12452;BME280;72521;48.924;12.204;2024-01-06T03:21:26;96298.34;;;3.24;100.00
12452;BME280;72521;48.924;12.204;2024-01-06T03:26:32;96304.34;;;3.25;100.00
12452;BME280;72521;48.924;12.204;2024-01-06T03:31:36;96308.25;;;3.22;100.00
12452;BME280;72521;48.924;12.204;2024-01-06T03:36:41;96302.50;;;3.20;100.00
12452;BME280;72521;48.924;12.204;2024-01-06T03:41:47;96299.88;;;3.20;100.00
12452;BME280;72521;48.924;12.204;2024-01-06T03:46:51;96304.34;;;3.20;100.00
12452;BME280;72521;48.924;12.204;2024-01-06T03:51:56;96297.28;;;3.20;100.00
12452;BME280;72521;48.924;12.204;2024-01-06T03:57:01;96301.47;;;3.21;100.00
12452;BME280;72521;48.924;12.204;2024-01-06T04:02:05;96304.34;;;3.25;100.00
12452;BME280;72521;48.924;12.204;2024-01-06T04:07:09;96314.53;;;3.21;100.00
12452;BME280;72521;48.924;12.204;2024-01-06T04:12:15;96318.69;;;3.17;100.00
12452;BME280;72521;48.924;12.204;2024-01-06T04:17:19;96316.63;;;3.19;100.00
12452;BME280;72521;48.924;12.204;2024-01-06T04:22:25;96323.41;;;3.30;100.00
12452;BME280;72521;48.924;12.204;2024-01-06T04:27:30;96320.81;;;3.15;100.00
12452;BME280;72521;48.924;12.204;2024-01-06T04:32:36;96334.13;;;3.19;100.00
12452;BME280;72521;48.924;12.204;2024-01-06T04:37:41;96328.91;;;3.14;100.00
12452;BME280;72521;48.924;12.204;2024-01-06T04:42:47;96340.16;;;3.14;100.00
12452;BME280;72521;48.924;12.204;2024-01-06T04:47:51;96337.78;;;3.13;100.00
12452;BME280;72521;48.924;12.204;2024-01-06T04:52:55;96343.28;;;3.21;100.00
12452;BME280;72521;48.924;12.204;2024-01-06T04:58:01;96354.25;;;3.18;100.00
12452;BME280;72521;48.924;12.204;2024-01-06T05:03:05;96349.03;;;3.23;100.00
12452;BME280;72521;48.924;12.204;2024-01-06T05:08:09;96358.44;;;3.24;100.00
12452;BME280;72521;48.924;12.204;2024-01-06T05:13:14;96359.22;;;3.20;100.00
12452;BME280;72521;48.924;12.204;2024-01-06T05:18:20;96362.91;;;3.24;100.00
12452;BME280;72521;48.924;12.204;2024-01-06T05:23:24;96369.94;;;3.23;100.00
12452;BME280;72521;48.924;12.204;2024-01-06T05:28:30;96373.59;;;3.27;100.00
12452;BME280;72521;48.924;12.204;2024-01-06T05:33:34;96372.56;;;3.28;100.00
12452;BME280;72521;48.924;12.204;2024-01-06T05:38:38;96379.63;;;3.28;100.00
12452;BME280;72521;48.924;12.204;2024-01-06T05:43:43;96379.34;;;3.29;100.00
12452;BME280;72521;48.924;12.204;2024-01-06T05:48:48;96380.94;;;3.30;100.00
12452;BME280;72521;48.924;12.204;2024-01-06T05:53:52;96387.19;;;3.29;100.00
12452;BME280;72521;48.924;12.204;2024-01-06T05:58:58;96389.31;;;3.32;100.00
12452;BME280;72521;48.924;12.204;2024-01-06T06:04:02;96397.66;;;3.29;100.00
12452;BME280;72521;48.924;12.204;2024-01-06T06:09:07;96402.63;;;3.31;100.00
12452;BME280;72521;48.924;12.204;2024-01-06T06:14:12;96409.16;;;3.28;100.00
12452;BME280;72521;48.924;12.204;2024-01-06T06:19:17;96415.16;;;3.29;100.00
12452;BME280;72521;48.924;12.204;2024-01-06T06:24:21;96418.03;;;3.27;100.00
12452;BME280;72521;48.924;12.204;2024-01-06T06:29:27;96417.00;;;3.28;100.00
12452;BME280;72521;48.924;12.204;2024-01-06T06:34:31;96422.75;;;3.25;100.00
12452;BME280;72521;48.924;12.204;2024-01-06T06:39:36;96434.25;;;3.24;100.00
12452;BME280;72521;48.924;12.204;2024-01-06T06:44:42;96444.72;;;3.24;100.00
12452;BME280;72521;48.924;12.204;2024-01-06T06:49:45;96445.75;;;3.28;100.00
12452;BME280;72521;48.924;12.204;2024-01-06T06:54:50;96452.28;;;3.31;100.00
12452;BME280;72521;48.924;12.204;2024-01-06T06:59:56;96450.22;;;3.33;100.00
12452;BME280;72521;48.924;12.204;2024-01-06T07:05:00;96455.41;;;3.28;100.00
12452;BME280;72521;48.924;12.204;2024-01-06T07:10:06;96465.38;;;3.31;100.00
12452;BME280;72521;48.924;12.204;2024-01-06T07:15:12;96476.59;;;3.31;100.00
12452;BME280;72521;48.924;12.204;2024-01-06T07:20:16;96490.72;;;3.30;100.00
12452;BME280;72521;48.924;12.204;2024-01-06T07:25:20;96496.50;;;3.32;100.00
12452;BME280;72521;48.924;12.204;2024-01-06T07:30:26;96498.84;;;3.34;100.00
12452;BME280;72521;48.924;12.204;2024-01-06T07:35:30;96506.44;;;3.35;100.00
12452;BME280;72521;48.924;12.204;2024-01-06T07:40:34;96517.16;;;3.34;100.00
12452;BME280;72521;48.924;12.204;2024-01-06T07:45:40;96518.72;;;3.35;100.00
12452;BME280;72521;48.924;12.204;2024-01-06T07:50:45;96522.63;;;3.38;100.00
12452;BME280;72521;48.924;12.204;2024-01-06T07:55:49;96514.53;;;3.34;100.00
12452;BME280;72521;48.924;12.204;2024-01-06T08:00:55;96525.78;;;3.40;100.00
12452;BME280;72521;48.924;12.204;2024-01-06T08:05:59;96522.63;;;3.38;100.00
12452;BME280;72521;48.924;12.204;2024-01-06T08:11:03;96532.59;;;3.41;100.00
12452;BME280;72521;48.924;12.204;2024-01-06T08:16:09;96525.25;;;3.38;100.00
12452;BME280;72521;48.924;12.204;2024-01-06T08:21:13;96533.88;;;3.38;100.00
12452;BME280;72521;48.924;12.204;2024-01-06T08:26:17;96533.63;;;3.40;100.00
12452;BME280;72521;48.924;12.204;2024-01-06T08:31:23;96547.81;;;3.54;100.00
12452;BME280;72521;48.924;12.204;2024-01-06T08:36:27;96548.31;;;3.51;100.00
12452;BME280;72521;48.924;12.204;2024-01-06T08:41:31;96558.78;;;3.56;100.00
12452;BME280;72521;48.924;12.204;2024-01-06T08:46:36;96566.16;;;3.64;100.00
12452;BME280;72521;48.924;12.204;2024-01-06T08:51:40;96571.88;;;3.66;100.00
12452;BME280;72521;48.924;12.204;2024-01-06T08:56:44;96576.88;;;3.67;100.00
12452;BME280;72521;48.924;12.204;2024-01-06T09:01:50;96580.03;;;3.69;100.00
12452;BME280;72521;48.924;12.204;2024-01-06T09:06:55;96588.66;;;3.70;100.00
12452;BME280;72521;48.924;12.204;2024-01-06T09:12:00;96583.47;;;3.85;100.00
12452;BME280;72521;48.924;12.204;2024-01-06T09:17:05;96583.47;;;3.95;100.00
12452;BME280;72521;48.924;12.204;2024-01-06T09:22:10;96590.56;;;4.05;100.00
12452;BME280;72521;48.924;12.204;2024-01-06T09:27:14;96594.00;;;4.10;100.00
12452;BME280;72521;48.924;12.204;2024-01-06T09:32:20;96593.47;;;4.08;100.00
12452;BME280;72521;48.924;12.204;2024-01-06T09:37:26;96589.31;;;4.13;100.00
12452;BME280;72521;48.924;12.204;2024-01-06T09:42:30;96587.72;;;4.27;100.00
12452;BME280;72521;48.924;12.204;2024-01-06T09:47:35;96598.75;;;4.59;100.00
12452;BME280;72521;48.924;12.204;2024-01-06T09:52:45;96592.22;;;4.52;100.00
12452;BME280;72521;48.924;12.204;2024-01-06T09:57:55;96601.63;;;4.63;100.00
12452;BME280;72521;48.924;12.204;2024-01-06T10:03:01;96607.94;;;4.52;100.00
12452;BME280;72521;48.924;12.204;2024-01-06T10:08:06;96595.34;;;4.48;100.00
12452;BME280;72521;48.924;12.204;2024-01-06T10:13:10;96599.28;;;4.41;100.00
12452;BME280;72521;48.924;12.204;2024-01-06T10:18:17;96600.56;;;4.54;100.00
12452;BME280;72521;48.924;12.204;2024-01-06T10:23:24;96600.31;;;4.45;100.00
12452;BME280;72521;48.924;12.204;2024-01-06T10:28:33;96593.00;;;4.67;100.00
12452;BME280;72521;48.924;12.204;2024-01-06T10:33:39;96593.00;;;4.57;100.00
12452;BME280;72521;48.924;12.204;2024-01-06T10:38:45;96599.53;;;4.55;100.00
12452;BME280;72521;48.924;12.204;2024-01-06T10:43:51;96609.78;;;4.51;100.00
12452;BME280;72521;48.924;12.204;2024-01-06T10:48:58;96611.84;;;4.39;100.00
12452;BME280;72521;48.924;12.204;2024-01-06T10:54:03;96607.66;;;4.48;100.00
12452;BME280;72521;48.924;12.204;2024-01-06T10:59:08;96599.81;;;4.78;100.00
12452;BME280;72521;48.924;12.204;2024-01-06T11:04:14;96588.28;;;4.79;100.00
12452;BME280;72521;48.924;12.204;2024-01-06T11:09:22;96580.41;;;4.54;100.00
12452;BME280;72521;48.924;12.204;2024-01-06T11:14:28;96582.50;;;4.77;100.00
12452;BME280;72521;48.924;12.204;2024-01-06T11:19:46;96575.69;;;4.56;100.00
12452;BME280;72521;48.924;12.204;2024-01-06T11:24:54;96569.66;;;4.56;100.00
12452;BME280;72521;48.924;12.204;2024-01-06T11:30:04;96574.88;;;4.91;100.00
12452;BME280;72521;48.924;12.204;2024-01-06T11:35:13;96576.47;;;4.77;100.00
12452;BME280;72521;48.924;12.204;2024-01-06T11:40:24;96572.53;;;4.64;100.00
12452;BME280;72521;48.924;12.204;2024-01-06T11:45:29;96577.00;;;4.79;100.00
12452;BME280;72521;48.924;12.204;2024-01-06T11:50:37;96578.06;;;4.58;100.00
12452;BME280;72521;48.924;12.204;2024-01-06T11:55:44;96578.84;;;4.78;100.00
12452;BME280;72521;48.924;12.204;2024-01-06T12:00:56;96580.69;;;4.58;100.00
12452;BME280;72521;48.924;12.204;2024-01-06T12:06:03;96575.69;;;4.71;100.00
12452;BME280;72521;48.924;12.204;2024-01-06T12:11:09;96574.63;;;4.72;100.00
12452;BME280;72521;48.924;12.204;2024-01-06T12:16:14;96574.13;;;4.80;100.00
12452;BME280;72521;48.924;12.204;2024-01-06T12:21:21;96575.19;;;4.79;100.00
12452;BME280;72521;48.924;12.204;2024-01-06T12:26:25;96569.38;;;4.82;100.00
12452;BME280;72521;48.924;12.204;2024-01-06T12:31:29;96572.53;;;4.74;100.00
12452;BME280;72521;48.924;12.204;2024-01-06T12:36:35;96570.19;;;4.73;100.00
12452;BME280;72521;48.924;12.204;2024-01-06T12:41:40;96560.75;;;4.72;100.00
12452;BME280;72521;48.924;12.204;2024-01-06T12:46:44;96561.03;;;4.65;100.00
12452;BME280;72521;48.924;12.204;2024-01-06T12:51:50;96556.28;;;4.88;100.00
12452;BME280;72521;48.924;12.204;2024-01-06T12:56:54;96548.16;;;4.84;100.00
12452;BME280;72521;48.924;12.204;2024-01-06T13:01:58;96545.56;;;4.69;100.00
12452;BME280;72521;48.924;12.204;2024-01-06T13:07:04;96546.09;;;4.66;100.00
12452;BME280;72521;48.924;12.204;2024-01-06T13:12:09;96550.03;;;4.53;100.00
12452;BME280;72521;48.924;12.204;2024-01-06T13:17:13;96550.03;;;4.53;100.00
12452;BME280;72521;48.924;12.204;2024-01-06T13:22:19;96555.28;;;4.58;100.00
12452;BME280;72521;48.924;12.204;2024-01-06T13:27:25;96562.59;;;4.66;100.00
12452;BME280;72521;48.924;12.204;2024-01-06T13:32:31;96565.22;;;4.66;100.00
12452;BME280;72521;48.924;12.204;2024-01-06T13:37:37;96572.00;;;4.72;100.00
12452;BME280;72521;48.924;12.204;2024-01-06T13:42:42;96574.63;;;4.62;100.00
12452;BME280;72521;48.924;12.204;2024-01-06T13:47:46;96574.63;;;4.52;100.00
12452;BME280;72521;48.924;12.204;2024-01-06T13:52:52;96584.84;;;4.54;100.00
12452;BME280;72521;48.924;12.204;2024-01-06T13:57:57;96583.03;;;4.49;100.00
12452;BME280;72521;48.924;12.204;2024-01-06T14:03:02;96578.84;;;4.48;100.00
12452;BME280;72521;48.924;12.204;2024-01-06T14:08:08;96589.03;;;4.34;100.00
12452;BME280;72521;48.924;12.204;2024-01-06T14:13:13;96591.13;;;4.42;100.00
12452;BME280;72521;48.924;12.204;2024-01-06T14:18:17;96589.31;;;4.38;100.00
12452;BME280;72521;48.924;12.204;2024-01-06T14:23:23;96581.97;;;4.45;100.00
12452;BME280;72521;48.924;12.204;2024-01-06T14:28:27;96589.31;;;4.48;100.00
12452;BME280;72521;48.924;12.204;2024-01-06T14:33:32;96601.38;;;4.49;100.00
12452;BME280;72521;48.924;12.204;2024-01-06T14:38:39;96599.78;;;4.38;100.00
12452;BME280;72521;48.924;12.204;2024-01-06T14:43:43;96604.75;;;4.29;100.00
12452;BME280;72521;48.924;12.204;2024-01-06T14:48:47;96603.69;;;4.20;100.00
12452;BME280;72521;48.924;12.204;2024-01-06T14:53:52;96606.28;;;4.05;100.00
12452;BME280;72521;48.924;12.204;2024-01-06T14:58:58;96610.69;;;3.94;100.00
12452;BME280;72521;48.924;12.204;2024-01-06T15:04:02;96611.72;;;3.88;100.00
12452;BME280;72521;48.924;12.204;2024-01-06T15:09:08;96610.69;;;3.84;100.00
12452;BME280;72521;48.924;12.204;2024-01-06T15:14:12;96608.31;;;3.83;100.00
12452;BME280;72521;48.924;12.204;2024-01-06T15:19:16;96617.97;;;3.77;100.00
12452;BME280;72521;48.924;12.204;2024-01-06T15:24:22;96624.25;;;3.71;100.00
12452;BME280;72521;48.924;12.204;2024-01-06T15:29:26;96627.34;;;3.68;100.00
12452;BME280;72521;48.924;12.204;2024-01-06T15:34:30;96626.56;;;3.67;100.00
12452;BME280;72521;48.924;12.204;2024-01-06T15:39:36;96622.41;;;3.71;100.00
12452;BME280;72521;48.924;12.204;2024-01-06T15:44:40;96616.34;;;3.66;100.00
12452;BME280;72521;48.924;12.204;2024-01-06T15:49:44;96633.13;;;3.65;100.00
12452;BME280;72521;48.924;12.204;2024-01-06T15:54:50;96627.31;;;3.58;100.00
12452;BME280;72521;48.924;12.204;2024-01-06T15:59:56;96627.56;;;3.56;100.00
12452;BME280;72521;48.924;12.204;2024-01-06T16:05:00;96625.22;;;3.55;100.00
12452;BME280;72521;48.924;12.204;2024-01-06T16:10:07;96629.88;;;3.48;100.00
12452;BME280;72521;48.924;12.204;2024-01-06T16:15:11;96630.97;;;3.52;100.00
12452;BME280;72521;48.924;12.204;2024-01-06T16:20:15;96636.44;;;3.50;100.00
12452;BME280;72521;48.924;12.204;2024-01-06T16:25:21;96635.88;;;3.43;100.00
12452;BME280;72521;48.924;12.204;2024-01-06T16:30:25;96641.13;;;3.43;100.00
12452;BME280;72521;48.924;12.204;2024-01-06T16:35:30;96643.69;;;3.38;100.00
12452;BME280;72521;48.924;12.204;2024-01-06T16:40:36;96642.91;;;3.38;100.00
12452;BME280;72521;48.924;12.204;2024-01-06T16:45:40;96636.63;;;3.39;100.00
12452;BME280;72521;48.924;12.204;2024-01-06T16:50:46;96646.34;;;3.43;100.00
12452;BME280;72521;48.924;12.204;2024-01-06T16:55:51;96649.75;;;3.44;100.00
12452;BME280;72521;48.924;12.204;2024-01-06T17:00:55;96653.09;;;3.39;100.00
12452;BME280;72521;48.924;12.204;2024-01-06T17:06:00;96659.38;;;3.38;100.00
12452;BME280;72521;48.924;12.204;2024-01-06T17:11:05;96653.34;;;3.38;100.00
12452;BME280;72521;48.924;12.204;2024-01-06T17:16:09;96663.03;;;3.37;100.00
12452;BME280;72521;48.924;12.204;2024-01-06T17:21:14;96671.97;;;3.46;100.00
12452;BME280;72521;48.924;12.204;2024-01-06T17:26:20;96671.41;;;3.39;100.00
12452;BME280;72521;48.924;12.204;2024-01-06T17:31:24;96673.22;;;3.33;100.00
12452;BME280;72521;48.924;12.204;2024-01-06T17:36:29;96681.56;;;3.30;100.00
12452;BME280;72521;48.924;12.204;2024-01-06T17:41:35;96671.16;;;3.41;100.00
12452;BME280;72521;48.924;12.204;2024-01-06T17:46:55;96682.91;;;3.38;100.00
12452;BME280;72521;48.924;12.204;2024-01-06T17:51:59;96679.44;;;3.27;100.00
12452;BME280;72521;48.924;12.204;2024-01-06T17:57:05;96673.72;;;3.30;100.00
12452;BME280;72521;48.924;12.204;2024-01-06T18:02:09;96679.72;;;3.26;100.00
12452;BME280;72521;48.924;12.204;2024-01-06T18:07:13;96684.72;;;3.32;100.00
12452;BME280;72521;48.924;12.204;2024-01-06T18:12:19;96683.13;;;3.26;100.00
12452;BME280;72521;48.924;12.204;2024-01-06T18:17:23;96685.38;;;3.18;100.00
12452;BME280;72521;48.924;12.204;2024-01-06T18:22:27;96677.31;;;3.19;100.00
12452;BME280;72521;48.924;12.204;2024-01-06T18:27:33;96685.91;;;3.15;100.00
12452;BME280;72521;48.924;12.204;2024-01-06T18:32:37;96682.69;;;3.08;100.00
12452;BME280;72521;48.924;12.204;2024-01-06T18:37:42;96686.00;;;2.93;100.00
12452;BME280;72521;48.924;12.204;2024-01-06T18:42:47;96686.25;;;2.91;100.00
12452;BME280;72521;48.924;12.204;2024-01-06T18:47:52;96686.25;;;2.91;100.00
12452;BME280;72521;48.924;12.204;2024-01-06T18:52:56;96693.53;;;2.89;100.00
12452;BME280;72521;48.924;12.204;2024-01-06T18:58:01;96688.28;;;2.84;100.00
12452;BME280;72521;48.924;12.204;2024-01-06T19:03:06;96686.91;;;2.77;100.00
12452;BME280;72521;48.924;12.204;2024-01-06T19:08:10;96688.53;;;2.83;100.00
12452;BME280;72521;48.924;12.204;2024-01-06T19:13:16;96692.22;;;2.87;100.00
12452;BME280;72521;48.924;12.204;2024-01-06T19:18:20;96693.75;;;2.83;100.00
12452;BME280;72521;48.924;12.204;2024-01-06T19:23:24;96681.97;;;2.80;100.00
12452;BME280;72521;48.924;12.204;2024-01-06T19:28:30;96690.69;;;2.91;100.00
12452;BME280;72521;48.924;12.204;2024-01-06T19:33:34;96696.56;;;2.76;100.00
12452;BME280;72521;48.924;12.204;2024-01-06T19:38:38;96690.34;;;2.82;100.00
12452;BME280;72521;48.924;12.204;2024-01-06T19:43:44;96687.97;;;2.81;100.00
12452;BME280;72521;48.924;12.204;2024-01-06T19:48:48;96688.53;;;2.83;100.00
12452;BME280;72521;48.924;12.204;2024-01-06T19:53:53;96694.16;;;2.70;100.00
12452;BME280;72521;48.924;12.204;2024-01-06T19:58:59;96688.41;;;2.68;100.00
12452;BME280;72521;48.924;12.204;2024-01-06T20:04:05;96693.56;;;2.63;100.00
12452;BME280;72521;48.924;12.204;2024-01-06T20:09:09;96693.31;;;2.64;100.00
12452;BME280;72521;48.924;12.204;2024-01-06T20:14:15;96687.28;;;2.58;100.00
12452;BME280;72521;48.924;12.204;2024-01-06T20:19:19;96691.72;;;2.58;100.00
12452;BME280;72521;48.924;12.204;2024-01-06T20:24:24;96687.28;;;2.58;100.00
12452;BME280;72521;48.924;12.204;2024-01-06T20:29:29;96688.25;;;2.52;100.00
12452;BME280;72521;48.924;12.204;2024-01-06T20:34:33;96684.66;;;2.58;100.00
12452;BME280;72521;48.924;12.204;2024-01-06T20:39:38;96681.44;;;2.51;100.00
12452;BME280;72521;48.924;12.204;2024-01-06T20:44:44;96679.16;;;2.55;100.00
12452;BME280;72521;48.924;12.204;2024-01-06T20:49:48;96674.94;;;2.49;100.00
12452;BME280;72521;48.924;12.204;2024-01-06T20:54:52;96670.50;;;2.49;100.00
12452;BME280;72521;48.924;12.204;2024-01-06T20:59:58;96672.03;;;2.50;100.00
12452;BME280;72521;48.924;12.204;2024-01-06T21:05:02;96665.50;;;2.48;100.00
12452;BME280;72521;48.924;12.204;2024-01-06T21:10:08;96667.91;;;2.54;100.00
12452;BME280;72521;48.924;12.204;2024-01-06T21:15:15;96664.72;;;2.47;100.00
12452;BME280;72521;48.924;12.204;2024-01-06T21:20:19;96668.50;;;2.61;100.00
12452;BME280;72521;48.924;12.204;2024-01-06T21:25:24;96666.91;;;2.60;100.00
12452;BME280;72521;48.924;12.204;2024-01-06T21:30:29;96664.59;;;2.64;100.00
12452;BME280;72521;48.924;12.204;2024-01-06T21:35:34;96661.19;;;2.64;100.00
12452;BME280;72521;48.924;12.204;2024-01-06T21:40:39;96666.41;;;2.58;100.00
12452;BME280;72521;48.924;12.204;2024-01-06T21:45:45;96651.22;;;2.55;100.00
12452;BME280;72521;48.924;12.204;2024-01-06T21:50:49;96659.59;;;2.57;100.00
12452;BME280;72521;48.924;12.204;2024-01-06T21:55:53;96654.94;;;2.65;100.00
12452;BME280;72521;48.924;12.204;2024-01-06T22:00:59;96661.16;;;2.58;100.00
12452;BME280;72521;48.924;12.204;2024-01-06T22:06:03;96670.28;;;2.56;100.00
12452;BME280;72521;48.924;12.204;2024-01-06T22:11:08;96671.75;;;2.47;100.00
12452;BME280;72521;48.924;12.204;2024-01-06T22:16:14;96664.72;;;2.47;100.00
12452;BME280;72521;48.924;12.204;2024-01-06T22:21:18;96672.03;;;2.50;100.00
12452;BME280;72521;48.924;12.204;2024-01-06T22:26:23;96671.53;;;2.48;100.00
12452;BME280;72521;48.924;12.204;2024-01-06T22:31:28;96674.47;;;2.57;100.00
12452;BME280;72521;48.924;12.204;2024-01-06T22:36:32;96673.19;;;2.59;100.00
12452;BME280;72521;48.924;12.204;2024-01-06T22:41:39;96660.38;;;2.58;100.00
12452;BME280;72521;48.924;12.204;2024-01-06T22:46:46;96664.22;;;2.50;100.00
12452;BME280;72521;48.924;12.204;2024-01-06T22:51:50;96669.50;;;2.55;100.00
12452;BME280;72521;48.924;12.204;2024-01-06T22:56:54;96671.56;;;2.53;100.00
12452;BME280;72521;48.924;12.204;2024-01-06T23:02:00;96675.25;;;2.57;100.00
12452;BME280;72521;48.924;12.204;2024-01-06T23:07:05;96672.69;;;2.63;100.00
12452;BME280;72521;48.924;12.204;2024-01-06T23:12:09;96677.13;;;2.62;100.00
12452;BME280;72521;48.924;12.204;2024-01-06T23:17:15;96683.69;;;2.70;100.00
12452;BME280;72521;48.924;12.204;2024-01-06T23:22:19;96684.72;;;2.64;100.00
12452;BME280;72521;48.924;12.204;2024-01-06T23:27:23;96681.75;;;2.55;100.00
12452;BME280;72521;48.924;12.204;2024-01-06T23:32:30;96686.44;;;2.53;100.00
12452;BME280;72521;48.924;12.204;2024-01-06T23:37:34;96686.16;;;2.49;100.00
12452;BME280;72521;48.924;12.204;2024-01-06T23:42:43;96687.22;;;2.53;100.00
12452;BME280;72521;48.924;12.204;2024-01-06T23:47:49;96693.00;;;2.55;100.00
12452;BME280;72521;48.924;12.204;2024-01-06T23:52:54;96686.66;;;2.51;100.00
12452;BME280;72521;48.924;12.204;2024-01-06T23:57:59;96694.03;;;2.54;100.00
